Flight Track Log - Related Links

Times and Time Zones

All times are in EDT time to prevent confusion due to time zone crossing. See the CSN3519 flight status page for this flight to view local times or setup timezone preferences in your user account.

Time Position Orientation Groundspeed Altitude Reporting Facility
EDT Latitude Longitude Course Direction KTS MPH feet Rate Location/Type
Thu 07:48:48 PM 23.3470 113.2660 209° Southwest 181 208 2,300  Level FlightAware ADS-B
Thu 07:48:58 PM 23.3380 113.2600 211° Southwest 193 222 2,600 1,867 Climbing FlightAware ADS-B
Thu 07:49:33 PM 23.3090 113.2420 210° Southwest 230 265 3,700 2,800 Climbing FlightAware ADS-B
Thu 07:49:58 PM 23.2850 113.2270 210° Southwest 226 260 5,400 3,750 Climbing FlightAware ADS-B
Thu 07:50:13 PM 23.2730 113.2170 217° Southwest 226 260 6,200 2,800 Climbing FlightAware ADS-B
Thu 07:50:28 PM 23.2670 113.1990 250° West 237 273 6,800 1,200 Climbing FlightAware ADS-B
Thu 07:50:58 PM 23.2770 113.1650 288° West 241 277 7,100 450 Climbing FlightAware ADS-B
Thu 07:51:08 PM 23.2810 113.1550 294° West 240 276 7,100 -150 Level FlightAware ADS-B
Thu 07:51:38 PM 23.2940 113.1200 292° West 241 277 7,000 -100 Descending FlightAware ADS-B
Thu 07:52:08 PM 23.3060 113.0870 292° West 241 277 7,000  Level FlightAware ADS-B
Thu 07:52:33 PM 23.3210 113.0630 304° West 247 284 7,000  Level FlightAware ADS-B
Thu 07:52:48 PM 23.3380 113.0560 339° North 252 290 7,000 300 Level FlightAware ADS-B
Thu 07:53:13 PM 23.3680 113.0620 10° North 284 327 7,200 1,350 Climbing FlightAware ADS-B
Thu 07:53:28 PM 23.3890 113.0660 10° North 295 339 7,900 3,200 Climbing FlightAware ADS-B
Thu 07:53:58 PM 23.4300 113.0750 11° North 295 339 9,600 2,829 Climbing FlightAware ADS-B
Thu 07:54:38 PM 23.4850 113.0860 10° North 318 366 11,200 2,541 Climbing FlightAware ADS-B
Thu 07:55:23 PM 23.5510 113.0990 10° North 333 383 13,200 2,541 Climbing FlightAware ADS-B
Thu 07:56:03 PM 23.6140 113.1120 11° North 346 398 14,800 2,329 Climbing FlightAware ADS-B
Thu 07:56:48 PM 23.6880 113.1280 11° North 356 410 16,500 1,425 Climbing FlightAware ADS-B
Thu 07:57:23 PM 23.7430 113.1400 11° North 385 443 16,700 150 Climbing FlightAware ADS-B
Thu 07:58:08 PM 23.8250 113.1570 11° North 383 441 16,700  Level FlightAware ADS-B
Thu 07:58:53 PM 23.9030 113.1730 11° North 385 443 16,700 847 Level FlightAware ADS-B
Thu 07:59:33 PM 23.9750 113.1840 North 390 449 17,900 2,100 Climbing FlightAware ADS-B
Thu 08:00:13 PM 24.0460 113.1940 North 387 445 19,500 1,906 Climbing FlightAware ADS-B
Thu 08:00:58 PM 24.1300 113.2060 North 402 463 20,600 847 Climbing FlightAware ADS-B
Thu 08:01:38 PM 24.2000 113.2160 North 402 463 20,700 212 Climbing FlightAware ADS-B
Thu 08:02:23 PM 24.2880 113.2290 North 421 484 20,900 988 Climbing FlightAware ADS-B
Thu 08:03:03 PM 24.3650 113.2400 North 426 490 22,100 1,765 Climbing FlightAware ADS-B
Thu 08:03:48 PM 24.4570 113.2540 North 434 499 23,400 1,906 Climbing FlightAware ADS-B
Thu 08:04:28 PM 24.5310 113.2650 North 431 496 24,800 2,175 Climbing FlightAware ADS-B
Thu 08:05:08 PM 24.6150 113.2770 North 426 490 26,300 1,694 Climbing FlightAware ADS-B
Thu 08:05:53 PM 24.7010 113.2900 North 435 501 27,200 1,341 Climbing FlightAware ADS-B
Thu 08:06:33 PM 24.7810 113.3020 North 439 505 28,200 1,482 Climbing FlightAware ADS-B
Thu 08:07:18 PM 24.8730 113.3150 North 443 510 29,300 1,341 Climbing FlightAware ADS-B
Thu 08:07:58 PM 24.9580 113.3280 North 450 518 30,100 1,350 Climbing FlightAware ADS-B
Thu 08:08:38 PM 25.0410 113.3400 North 451 519 31,100 1,624 Climbing FlightAware ADS-B
Thu 08:09:23 PM 25.1340 113.3540 North 447 514 32,400 1,412 Climbing FlightAware ADS-B
Thu 08:10:03 PM 25.2140 113.3660 North 440 506 33,100 525 Climbing FlightAware ADS-B
Thu 08:10:43 PM 25.2950 113.3780 North 441 507 33,100  Level FlightAware ADS-B
Thu 08:11:23 PM 25.3760 113.3900 North 441 507 33,100  Level FlightAware ADS-B
Thu 08:12:08 PM 25.4570 113.4010 North 441 507 33,100  Level FlightAware ADS-B
Thu 08:12:58 PM 25.5650 113.4170 North 445 512 33,100  Level FlightAware ADS-B
Thu 08:13:13 PM 25.5960 113.4420 36° Northeast 452 520 33,100  Level FlightAware ADS-B
Thu 08:13:58 PM 25.6750 113.4820 25° Northeast 453 521 33,100  Level FlightAware ADS-B
Thu 08:14:38 PM 25.7410 113.5140 24° Northeast 453 521 33,100  Level FlightAware ADS-B
Thu 08:15:18 PM 25.8060 113.5460 24° Northeast 453 521 33,100  Level FlightAware ADS-B
Thu 08:16:08 PM 25.8870 113.5860 24° Northeast 453 521 33,100  Level FlightAware ADS-B
Thu 08:16:48 PM 25.9520 113.6180 24° Northeast 453 521 33,100  Level FlightAware ADS-B
Thu 08:17:28 PM 26.0170 113.6510 25° Northeast 453 521 33,100  Level FlightAware ADS-B
Thu 08:18:08 PM 26.0820 113.6830 24° Northeast 453 521 33,100  Level FlightAware ADS-B
Thu 08:18:48 PM 26.1470 113.7150 24° Northeast 453 521 33,100  Level FlightAware ADS-B
Thu 08:19:38 PM 26.2290 113.7560 24° Northeast 453 521 33,100  Level FlightAware ADS-B
Thu 08:20:18 PM 26.2940 113.7880 24° Northeast 453 521 33,100  Level FlightAware ADS-B
Thu 08:20:58 PM 26.3590 113.8200 24° Northeast 453 521 33,100  Level FlightAware ADS-B
Thu 08:21:38 PM 26.4240 113.8530 24° Northeast 453 521 33,100  Level FlightAware ADS-B
Thu 08:22:28 PM 26.5050 113.8930 24° Northeast 453 521 33,100  Level FlightAware ADS-B
Thu 08:23:08 PM 26.5710 113.9250 23° Northeast 453 521 33,100  Level FlightAware ADS-B
Thu 08:25:00 PM 26.7745 113.9767 13° North  Level Estimated
Thu 08:26:00 PM 26.8836 114.0045 13° North  Level Estimated
Thu 08:27:00 PM 26.9926 114.0324 13° North  Level Estimated
Thu 08:28:00 PM 27.1016 114.0603 13° North  Level Estimated
Thu 08:29:00 PM 27.2106 114.0882 13° North  Level Estimated
Thu 08:30:00 PM 27.3196 114.1162 13° North  Level Estimated
Thu 08:31:00 PM 27.4286 114.1443 13° North  Level Estimated
Thu 08:32:00 PM 27.5376 114.1724 13° North  Level Estimated
Thu 08:33:00 PM 27.6466 114.2006 13° North  Level Estimated
Thu 08:34:00 PM 27.7556 114.2288 13° North  Level Estimated
Thu 08:35:00 PM 27.8646 114.2571 13° North  Level Estimated
Thu 08:36:00 PM 27.9736 114.2855 13° North  Level Estimated
Thu 08:37:00 PM 28.0825 114.3139 13° North  Level Estimated
Thu 08:38:00 PM 28.1915 114.3423 13° North  Level Estimated
Thu 08:39:00 PM 28.3004 114.3708 13° North  Level Estimated
Thu 08:40:00 PM 28.4094 114.3994 13° North  Level Estimated
Thu 08:41:00 PM 28.5183 114.4281 13° North  Level Estimated
Thu 08:42:00 PM 28.6273 114.4567 13° North  Level Estimated
Thu 08:43:00 PM 28.7362 114.4855 13° North  Level Estimated
Thu 08:44:00 PM 28.8451 114.5143 13° North  Level Estimated
Thu 08:45:00 PM 28.9541 114.5432 13° North  Level Estimated
Thu 08:46:00 PM 29.0630 114.5721 13° North  Level Estimated
Thu 08:47:00 PM 29.1719 114.6011 13° North  Level Estimated
Thu 08:48:00 PM 29.2808 114.6302 13° North  Level Estimated
Thu 08:49:00 PM 29.3897 114.6593 13° North  Level Estimated
Thu 08:50:00 PM 29.4986 114.6885 13° North  Level Estimated
Thu 08:51:00 PM 29.6074 114.7177 13° North  Level Estimated
Thu 08:52:00 PM 29.7163 114.7470 13° North  Level Estimated
Thu 08:53:00 PM 29.8252 114.7764 13° North  Level Estimated
Thu 08:54:00 PM 29.9340 114.8058 13° North  Level Estimated
Thu 08:55:00 PM 30.0429 114.8354 13° North  Level Estimated
Thu 08:56:00 PM 30.1518 114.8649 13° North  Level Estimated
Thu 08:57:00 PM 30.2606 114.8945 13° North  Level Estimated
Thu 08:58:00 PM 30.3694 114.9242 13° North  Level Estimated
Thu 08:59:00 PM 30.4783 114.9540 13° North  Level Estimated
Thu 09:00:00 PM 30.5871 114.9838 13° North  Level Estimated
Thu 09:01:00 PM 30.6959 115.0137 13° North  Level Estimated
Thu 09:02:00 PM 30.8047 115.0437 13° North  Level Estimated
Thu 09:03:00 PM 30.9135 115.0737 13° North  Level Estimated
Thu 09:04:00 PM 31.0223 115.1038 13° North  Level Estimated
Thu 09:05:00 PM 31.1311 115.1340 13° North  Level Estimated
Thu 09:06:00 PM 31.2399 115.1642 13° North  Level Estimated
Thu 09:07:00 PM 31.3487 115.1945 13° North  Level Estimated
Thu 09:08:00 PM 31.4574 115.2249 13° North  Level Estimated
Thu 09:09:00 PM 31.5662 115.2554 13° North  Level Estimated
Thu 09:10:00 PM 31.6749 115.2859 13° North  Level Estimated
Thu 09:11:00 PM 31.7837 115.3165 13° North  Level Estimated
Thu 09:12:00 PM 31.8924 115.3472 13° North  Level Estimated
Thu 09:13:00 PM 32.0012 115.3779 13° North  Level Estimated
Thu 09:14:00 PM 32.1099 115.4087 13° North  Level Estimated
Thu 09:15:00 PM 32.2186 115.4396 14° North  Level Estimated
Thu 09:16:00 PM 32.3273 115.4705 14° North  Level Estimated
Thu 09:17:00 PM 32.4360 115.5016 14° North  Level Estimated
Thu 09:18:00 PM 32.5447 115.5327 14° North  Level Estimated
Thu 09:19:00 PM 32.6534 115.5639 14° North  Level Estimated
Thu 09:20:00 PM 32.7621 115.5951 14° North  Level Estimated
Thu 09:21:00 PM 32.8707 115.6264 14° North  Level Estimated
Thu 09:22:00 PM 32.9794 115.6579 14° North  Level Estimated
Thu 09:23:00 PM 33.0881 115.6893 14° North  Level Estimated
Thu 09:24:00 PM 33.1967 115.7209 14° North  Level Estimated
Thu 09:25:00 PM 33.3053 115.7526 14° North  Level Estimated
Thu 09:26:00 PM 33.4140 115.7843 14° North  Level Estimated
Thu 09:27:00 PM 33.5226 115.8161 14° North  Level Estimated
Thu 09:28:00 PM 33.6312 115.8480 14° North  Level Estimated
Thu 09:29:00 PM 33.7398 115.8799 14° North  Level Estimated
Thu 09:30:00 PM 33.8484 115.9120 14° North  Level Estimated
Thu 09:31:00 PM 33.9570 115.9441 14° North  Level Estimated
Thu 09:32:00 PM 34.0656 115.9763 14° North  Level Estimated
Thu 09:33:00 PM 34.1741 116.0086 14° North  Level Estimated
Thu 09:34:00 PM 34.2827 116.0410 14° North  Level Estimated
Thu 09:35:00 PM 34.3913 116.0734 14° North  Level Estimated
Thu 09:36:00 PM 34.4998 116.1060 14° North  Level Estimated
Thu 09:37:00 PM 34.6084 116.1386 14° North  Level Estimated
Thu 09:38:00 PM 34.7169 116.1713 14° North  Level Estimated
Thu 09:39:00 PM 34.8254 116.2041 14° North  Level Estimated
Thu 09:40:00 PM 34.9339 116.2370 14° North  Level Estimated
Thu 09:41:00 PM 35.0424 116.2700 14° North  Level Estimated
Thu 09:42:00 PM 35.1509 116.3030 14° North  Level Estimated
Thu 09:43:00 PM 35.2594 116.3362 14° North  Level Estimated
Thu 09:44:00 PM 35.2928 116.3464 14° North  Level Estimated
Thu 09:45:00 PM 35.2928 116.3464 202° Southwest  Level Estimated
Thu 09:46:00 PM 35.2928 116.3464 202° Southwest  Level Estimated
Thu 09:47:00 PM 35.2928 116.3464 202° Southwest  Level Estimated
Thu 09:48:00 PM 35.2928 116.3464 202° Southwest  Level Estimated
Thu 09:49:00 PM 35.2928 116.3464 202° Southwest  Level Estimated
Thu 09:50:00 PM 35.2928 116.3464 202° Southwest  Level Estimated
Thu 09:51:00 PM 35.2928 116.3464 202° Southwest  Level Estimated

Login

Don't have an account? Register now (free) for customized features, flight alerts, and more!